sensor_id;sensor_type;location;lat;lon;timestamp;P1;durP1;ratioP1;P2;durP2;ratioP2
51020;SDS011;38907;45.562;8.856;2023-06-24T00:03:52;8.60;;;3.10;;
51020;SDS011;38907;45.562;8.856;2023-06-24T00:08:54;4.18;;;2.40;;
51020;SDS011;38907;45.562;8.856;2023-06-24T00:14:00;5.43;;;2.08;;
51020;SDS011;38907;45.562;8.856;2023-06-24T00:19:03;2.83;;;2.00;;
51020;SDS011;38907;45.562;8.856;2023-06-24T00:24:05;6.35;;;2.95;;
51020;SDS011;38907;45.562;8.856;2023-06-24T00:34:10;5.07;;;2.10;;
51020;SDS011;38907;45.562;8.856;2023-06-24T00:39:12;2.90;;;1.98;;
51020;SDS011;38907;45.562;8.856;2023-06-24T00:44:14;4.45;;;2.38;;
51020;SDS011;38907;45.562;8.856;2023-06-24T00:49:17;3.72;;;2.10;;
51020;SDS011;38907;45.562;8.856;2023-06-24T00:54:20;4.13;;;2.38;;
51020;SDS011;38907;45.562;8.856;2023-06-24T00:59:21;3.25;;;2.10;;
51020;SDS011;38907;45.562;8.856;2023-06-24T01:04:26;2.97;;;1.98;;
51020;SDS011;38907;45.562;8.856;2023-06-24T01:09:28;6.40;;;2.00;;
51020;SDS011;38907;45.562;8.856;2023-06-24T01:14:30;2.85;;;2.10;;
51020;SDS011;38907;45.562;8.856;2023-06-24T01:25:13;5.90;;;2.28;;
51020;SDS011;38907;45.562;8.856;2023-06-24T01:35:59;4.55;;;2.03;;
51020;SDS011;38907;45.562;8.856;2023-06-24T01:41:03;3.50;;;2.10;;
51020;SDS011;38907;45.562;8.856;2023-06-24T01:46:07;4.10;;;2.10;;
51020;SDS011;38907;45.562;8.856;2023-06-24T01:51:13;3.50;;;2.13;;
51020;SDS011;38907;45.562;8.856;2023-06-24T01:56:20;3.67;;;2.38;;
51020;SDS011;38907;45.562;8.856;2023-06-24T02:01:24;3.35;;;2.15;;
51020;SDS011;38907;45.562;8.856;2023-06-24T02:06:29;3.10;;;2.10;;
51020;SDS011;38907;45.562;8.856;2023-06-24T02:11:33;3.20;;;2.28;;
51020;SDS011;38907;45.562;8.856;2023-06-24T02:16:36;4.38;;;2.25;;
51020;SDS011;38907;45.562;8.856;2023-06-24T02:21:44;3.83;;;2.05;;
51020;SDS011;38907;45.562;8.856;2023-06-24T02:26:46;5.47;;;2.13;;
51020;SDS011;38907;45.562;8.856;2023-06-24T02:31:49;2.92;;;2.00;;
51020;SDS011;38907;45.562;8.856;2023-06-24T02:36:52;2.80;;;1.95;;
51020;SDS011;38907;45.562;8.856;2023-06-24T02:41:54;3.63;;;2.22;;
51020;SDS011;38907;45.562;8.856;2023-06-24T02:46:56;4.20;;;2.40;;
51020;SDS011;38907;45.562;8.856;2023-06-24T02:52:01;3.47;;;2.28;;
51020;SDS011;38907;45.562;8.856;2023-06-24T02:57:04;3.40;;;2.05;;
51020;SDS011;38907;45.562;8.856;2023-06-24T03:02:06;2.22;;;2.03;;
51020;SDS011;38907;45.562;8.856;2023-06-24T03:07:11;3.75;;;2.58;;
51020;SDS011;38907;45.562;8.856;2023-06-24T03:12:13;3.53;;;2.22;;
51020;SDS011;38907;45.562;8.856;2023-06-24T03:17:14;6.18;;;2.05;;
51020;SDS011;38907;45.562;8.856;2023-06-24T03:22:18;3.33;;;2.30;;
51020;SDS011;38907;45.562;8.856;2023-06-24T03:27:20;3.22;;;2.08;;
51020;SDS011;38907;45.562;8.856;2023-06-24T03:32:22;2.90;;;2.30;;
51020;SDS011;38907;45.562;8.856;2023-06-24T03:37:25;4.35;;;2.28;;
51020;SDS011;38907;45.562;8.856;2023-06-24T03:42:27;3.40;;;2.55;;
51020;SDS011;38907;45.562;8.856;2023-06-24T03:47:29;4.43;;;2.50;;
51020;SDS011;38907;45.562;8.856;2023-06-24T03:52:32;2.80;;;2.40;;
51020;SDS011;38907;45.562;8.856;2023-06-24T03:57:34;3.08;;;2.00;;
51020;SDS011;38907;45.562;8.856;2023-06-24T04:02:36;3.00;;;2.17;;
51020;SDS011;38907;45.562;8.856;2023-06-24T04:07:39;3.38;;;2.10;;
51020;SDS011;38907;45.562;8.856;2023-06-24T04:12:46;6.60;;;2.63;;
51020;SDS011;38907;45.562;8.856;2023-06-24T04:17:48;5.18;;;2.38;;
51020;SDS011;38907;45.562;8.856;2023-06-24T04:22:51;2.72;;;1.77;;
51020;SDS011;38907;45.562;8.856;2023-06-24T04:27:53;3.42;;;2.40;;
51020;SDS011;38907;45.562;8.856;2023-06-24T04:32:55;5.28;;;2.25;;
51020;SDS011;38907;45.562;8.856;2023-06-24T04:37:58;3.00;;;2.10;;
51020;SDS011;38907;45.562;8.856;2023-06-24T04:43:00;4.20;;;2.83;;
51020;SDS011;38907;45.562;8.856;2023-06-24T04:48:02;4.22;;;2.47;;
51020;SDS011;38907;45.562;8.856;2023-06-24T04:58:07;4.45;;;2.25;;
51020;SDS011;38907;45.562;8.856;2023-06-24T05:03:09;3.47;;;2.38;;
51020;SDS011;38907;45.562;8.856;2023-06-24T05:08:12;6.78;;;2.30;;
51020;SDS011;38907;45.562;8.856;2023-06-24T05:13:14;7.35;;;2.40;;
51020;SDS011;38907;45.562;8.856;2023-06-24T05:18:16;3.58;;;2.30;;
51020;SDS011;38907;45.562;8.856;2023-06-24T05:23:19;3.45;;;2.30;;
51020;SDS011;38907;45.562;8.856;2023-06-24T05:28:21;3.80;;;2.40;;
51020;SDS011;38907;45.562;8.856;2023-06-24T05:33:23;2.72;;;2.13;;
51020;SDS011;38907;45.562;8.856;2023-06-24T05:43:28;2.90;;;2.40;;
51020;SDS011;38907;45.562;8.856;2023-06-24T05:48:30;3.55;;;2.03;;
51020;SDS011;38907;45.562;8.856;2023-06-24T05:53:33;2.92;;;2.00;;
51020;SDS011;38907;45.562;8.856;2023-06-24T05:58:35;3.25;;;2.33;;
51020;SDS011;38907;45.562;8.856;2023-06-24T06:03:37;6.82;;;2.53;;
51020;SDS011;38907;45.562;8.856;2023-06-24T06:08:40;5.22;;;2.00;;
51020;SDS011;38907;45.562;8.856;2023-06-24T06:13:42;2.80;;;2.00;;
51020;SDS011;38907;45.562;8.856;2023-06-24T06:18:44;3.35;;;2.15;;
51020;SDS011;38907;45.562;8.856;2023-06-24T06:23:47;2.97;;;2.13;;
51020;SDS011;38907;45.562;8.856;2023-06-24T06:28:49;5.45;;;2.08;;
51020;SDS011;38907;45.562;8.856;2023-06-24T06:33:53;3.67;;;2.05;;
51020;SDS011;38907;45.562;8.856;2023-06-24T06:38:56;6.32;;;1.95;;
51020;SDS011;38907;45.562;8.856;2023-06-24T06:43:58;5.28;;;2.13;;
51020;SDS011;38907;45.562;8.856;2023-06-24T06:49:00;2.75;;;1.90;;
51020;SDS011;38907;45.562;8.856;2023-06-24T06:54:03;3.95;;;2.15;;
51020;SDS011;38907;45.562;8.856;2023-06-24T06:59:05;3.67;;;2.08;;
51020;SDS011;38907;45.562;8.856;2023-06-24T07:04:07;2.78;;;2.05;;
51020;SDS011;38907;45.562;8.856;2023-06-24T07:09:10;4.50;;;2.15;;
51020;SDS011;38907;45.562;8.856;2023-06-24T07:14:12;2.47;;;1.75;;
51020;SDS011;38907;45.562;8.856;2023-06-24T07:19:14;2.30;;;1.90;;
51020;SDS011;38907;45.562;8.856;2023-06-24T07:29:19;2.95;;;1.95;;
51020;SDS011;38907;45.562;8.856;2023-06-24T07:39:24;3.60;;;2.05;;
51020;SDS011;38907;45.562;8.856;2023-06-24T07:44:26;5.43;;;2.28;;
51020;SDS011;38907;45.562;8.856;2023-06-24T07:49:28;3.70;;;2.13;;
51020;SDS011;38907;45.562;8.856;2023-06-24T08:04:34;5.78;;;2.20;;
51020;SDS011;38907;45.562;8.856;2023-06-24T08:14:39;3.83;;;2.33;;
51020;SDS011;38907;45.562;8.856;2023-06-24T08:24:44;3.33;;;2.28;;
51020;SDS011;38907;45.562;8.856;2023-06-24T08:29:46;3.53;;;2.38;;
51020;SDS011;38907;45.562;8.856;2023-06-24T08:34:48;3.85;;;2.90;;
51020;SDS011;38907;45.562;8.856;2023-06-24T08:39:51;3.90;;;2.45;;
51020;SDS011;38907;45.562;8.856;2023-06-24T08:44:53;3.40;;;2.47;;
51020;SDS011;38907;45.562;8.856;2023-06-24T08:49:56;4.00;;;2.65;;
51020;SDS011;38907;45.562;8.856;2023-06-24T08:55:06;3.67;;;2.70;;
51020;SDS011;38907;45.562;8.856;2023-06-24T09:00:10;3.60;;;2.67;;
51020;SDS011;38907;45.562;8.856;2023-06-24T09:05:13;4.97;;;3.10;;
51020;SDS011;38907;45.562;8.856;2023-06-24T09:10:30;3.40;;;2.60;;
51020;SDS011;38907;45.562;8.856;2023-06-24T09:15:33;3.83;;;2.95;;
51020;SDS011;38907;45.562;8.856;2023-06-24T09:20:35;5.22;;;2.97;;
51020;SDS011;38907;45.562;8.856;2023-06-24T09:25:46;4.75;;;2.88;;
51020;SDS011;38907;45.562;8.856;2023-06-24T09:31:04;4.53;;;2.97;;
51020;SDS011;38907;45.562;8.856;2023-06-24T09:36:07;6.90;;;3.15;;
51020;SDS011;38907;45.562;8.856;2023-06-24T09:41:15;6.05;;;3.60;;
51020;SDS011;38907;45.562;8.856;2023-06-24T09:46:17;6.35;;;3.10;;
51020;SDS011;38907;45.562;8.856;2023-06-24T09:51:19;5.43;;;3.45;;
51020;SDS011;38907;45.562;8.856;2023-06-24T09:56:24;14.35;;;3.40;;
51020;SDS011;38907;45.562;8.856;2023-06-24T10:01:26;5.20;;;3.45;;
51020;SDS011;38907;45.562;8.856;2023-06-24T10:06:29;39.30;;;4.38;;
51020;SDS011;38907;45.562;8.856;2023-06-24T10:11:33;7.68;;;3.25;;
51020;SDS011;38907;45.562;8.856;2023-06-24T10:16:35;4.40;;;3.50;;
51020;SDS011;38907;45.562;8.856;2023-06-24T10:21:43;7.60;;;3.63;;
51020;SDS011;38907;45.562;8.856;2023-06-24T10:26:49;5.10;;;3.30;;
51020;SDS011;38907;45.562;8.856;2023-06-24T10:31:52;6.97;;;3.70;;
51020;SDS011;38907;45.562;8.856;2023-06-24T10:36:56;4.93;;;3.10;;
51020;SDS011;38907;45.562;8.856;2023-06-24T10:42:06;29.17;;;5.40;;
51020;SDS011;38907;45.562;8.856;2023-06-24T10:47:36;8.52;;;3.75;;
51020;SDS011;38907;45.562;8.856;2023-06-24T10:52:48;126.00;;;11.23;;
51020;SDS011;38907;45.562;8.856;2023-06-24T10:57:55;14.70;;;3.80;;
51020;SDS011;38907;45.562;8.856;2023-06-24T11:03:09;6.32;;;3.75;;
51020;SDS011;38907;45.562;8.856;2023-06-24T11:08:12;5.68;;;3.83;;
51020;SDS011;38907;45.562;8.856;2023-06-24T11:13:15;8.93;;;3.78;;
51020;SDS011;38907;45.562;8.856;2023-06-24T11:18:21;6.97;;;3.38;;
51020;SDS011;38907;45.562;8.856;2023-06-24T11:23:23;4.53;;;3.30;;
51020;SDS011;38907;45.562;8.856;2023-06-24T11:28:26;10.23;;;3.55;;
51020;SDS011;38907;45.562;8.856;2023-06-24T11:33:28;6.15;;;3.75;;
51020;SDS011;38907;45.562;8.856;2023-06-24T11:38:30;6.93;;;3.60;;
51020;SDS011;38907;45.562;8.856;2023-06-24T11:43:34;5.93;;;3.33;;
51020;SDS011;38907;45.562;8.856;2023-06-24T11:48:39;4.50;;;3.47;;
51020;SDS011;38907;45.562;8.856;2023-06-24T11:53:41;7.78;;;3.80;;
51020;SDS011;38907;45.562;8.856;2023-06-24T11:58:45;6.93;;;3.53;;
51020;SDS011;38907;45.562;8.856;2023-06-24T12:03:51;7.80;;;3.65;;
51020;SDS011;38907;45.562;8.856;2023-06-24T12:08:53;6.72;;;3.65;;
51020;SDS011;38907;45.562;8.856;2023-06-24T12:13:56;6.97;;;3.30;;
51020;SDS011;38907;45.562;8.856;2023-06-24T12:18:58;5.32;;;3.50;;
51020;SDS011;38907;45.562;8.856;2023-06-24T12:24:00;4.32;;;3.08;;
51020;SDS011;38907;45.562;8.856;2023-06-24T12:29:04;4.15;;;3.00;;
51020;SDS011;38907;45.562;8.856;2023-06-24T12:34:06;8.95;;;3.33;;
51020;SDS011;38907;45.562;8.856;2023-06-24T12:39:07;13.43;;;3.38;;
51020;SDS011;38907;45.562;8.856;2023-06-24T12:44:11;7.60;;;3.47;;
51020;SDS011;38907;45.562;8.856;2023-06-24T12:49:14;5.45;;;3.50;;
51020;SDS011;38907;45.562;8.856;2023-06-24T12:54:16;5.28;;;3.38;;
51020;SDS011;38907;45.562;8.856;2023-06-24T12:59:19;7.93;;;3.50;;
51020;SDS011;38907;45.562;8.856;2023-06-24T13:04:22;5.82;;;3.08;;
51020;SDS011;38907;45.562;8.856;2023-06-24T13:09:24;5.78;;;3.50;;
51020;SDS011;38907;45.562;8.856;2023-06-24T13:14:28;8.52;;;3.47;;
51020;SDS011;38907;45.562;8.856;2023-06-24T13:19:31;6.03;;;3.65;;
51020;SDS011;38907;45.562;8.856;2023-06-24T13:24:33;4.97;;;3.50;;
51020;SDS011;38907;45.562;8.856;2023-06-24T13:29:37;6.30;;;3.85;;
51020;SDS011;38907;45.562;8.856;2023-06-24T13:34:39;9.38;;;3.95;;
51020;SDS011;38907;45.562;8.856;2023-06-24T13:39:41;7.25;;;3.65;;
51020;SDS011;38907;45.562;8.856;2023-06-24T13:44:44;8.38;;;3.15;;
51020;SDS011;38907;45.562;8.856;2023-06-24T13:49:46;104.07;;;9.93;;
51020;SDS011;38907;45.562;8.856;2023-06-24T13:54:49;5.65;;;3.17;;
51020;SDS011;38907;45.562;8.856;2023-06-24T13:59:52;6.90;;;4.00;;
51020;SDS011;38907;45.562;8.856;2023-06-24T14:04:54;4.97;;;3.33;;
51020;SDS011;38907;45.562;8.856;2023-06-24T14:09:57;4.63;;;3.28;;
51020;SDS011;38907;45.562;8.856;2023-06-24T14:15:01;5.30;;;3.63;;
51020;SDS011;38907;45.562;8.856;2023-06-24T14:20:03;5.18;;;3.40;;
51020;SDS011;38907;45.562;8.856;2023-06-24T14:25:06;9.32;;;3.55;;
51020;SDS011;38907;45.562;8.856;2023-06-24T14:30:10;6.72;;;2.97;;
51020;SDS011;38907;45.562;8.856;2023-06-24T14:35:13;7.00;;;3.53;;
51020;SDS011;38907;45.562;8.856;2023-06-24T14:40:15;28.23;;;5.60;;
51020;SDS011;38907;45.562;8.856;2023-06-24T14:45:19;7.10;;;3.20;;
51020;SDS011;38907;45.562;8.856;2023-06-24T14:50:20;4.05;;;3.00;;
51020;SDS011;38907;45.562;8.856;2023-06-24T14:55:22;7.65;;;3.58;;
51020;SDS011;38907;45.562;8.856;2023-06-24T15:00:25;5.63;;;3.20;;
51020;SDS011;38907;45.562;8.856;2023-06-24T15:05:27;7.85;;;3.63;;
51020;SDS011;38907;45.562;8.856;2023-06-24T15:10:29;7.25;;;3.30;;
51020;SDS011;38907;45.562;8.856;2023-06-24T15:15:32;4.78;;;3.53;;
51020;SDS011;38907;45.562;8.856;2023-06-24T15:20:34;8.65;;;3.40;;
51020;SDS011;38907;45.562;8.856;2023-06-24T15:25:36;46.88;;;5.55;;
51020;SDS011;38907;45.562;8.856;2023-06-24T15:30:39;6.78;;;3.53;;
51020;SDS011;38907;45.562;8.856;2023-06-24T15:35:41;4.68;;;3.35;;
51020;SDS011;38907;45.562;8.856;2023-06-24T15:40:43;4.15;;;3.08;;
51020;SDS011;38907;45.562;8.856;2023-06-24T15:45:47;6.57;;;3.55;;
51020;SDS011;38907;45.562;8.856;2023-06-24T15:50:49;6.30;;;3.50;;
51020;SDS011;38907;45.562;8.856;2023-06-24T15:55:50;6.90;;;3.35;;
51020;SDS011;38907;45.562;8.856;2023-06-24T16:00:54;4.00;;;3.30;;
51020;SDS011;38907;45.562;8.856;2023-06-24T16:05:56;5.63;;;3.10;;
51020;SDS011;38907;45.562;8.856;2023-06-24T16:10:58;4.85;;;3.00;;
51020;SDS011;38907;45.562;8.856;2023-06-24T16:16:02;7.43;;;3.28;;
51020;SDS011;38907;45.562;8.856;2023-06-24T16:21:05;4.30;;;3.00;;
51020;SDS011;38907;45.562;8.856;2023-06-24T16:26:07;8.05;;;3.30;;
51020;SDS011;38907;45.562;8.856;2023-06-24T16:31:11;7.13;;;3.03;;
51020;SDS011;38907;45.562;8.856;2023-06-24T16:36:12;9.73;;;3.10;;
51020;SDS011;38907;45.562;8.856;2023-06-24T16:41:14;4.85;;;3.13;;
51020;SDS011;38907;45.562;8.856;2023-06-24T16:46:18;4.88;;;3.08;;
51020;SDS011;38907;45.562;8.856;2023-06-24T16:51:22;8.50;;;3.30;;
51020;SDS011;38907;45.562;8.856;2023-06-24T16:56:24;8.82;;;2.85;;
51020;SDS011;38907;45.562;8.856;2023-06-24T17:01:28;4.03;;;2.78;;
51020;SDS011;38907;45.562;8.856;2023-06-24T17:06:31;9.52;;;3.65;;
51020;SDS011;38907;45.562;8.856;2023-06-24T17:11:33;6.25;;;3.40;;
51020;SDS011;38907;45.562;8.856;2023-06-24T17:16:37;3.83;;;3.20;;
51020;SDS011;38907;45.562;8.856;2023-06-24T17:21:39;4.57;;;2.95;;
51020;SDS011;38907;45.562;8.856;2023-06-24T17:26:41;7.82;;;3.45;;
51020;SDS011;38907;45.562;8.856;2023-06-24T17:31:44;4.22;;;2.95;;
51020;SDS011;38907;45.562;8.856;2023-06-24T17:36:48;4.28;;;3.28;;
51020;SDS011;38907;45.562;8.856;2023-06-24T17:41:50;3.67;;;3.00;;
51020;SDS011;38907;45.562;8.856;2023-06-24T17:46:54;4.78;;;3.17;;
51020;SDS011;38907;45.562;8.856;2023-06-24T17:51:56;5.63;;;3.03;;
51020;SDS011;38907;45.562;8.856;2023-06-24T17:56:58;8.38;;;3.33;;
51020;SDS011;38907;45.562;8.856;2023-06-24T18:02:01;5.68;;;2.70;;
51020;SDS011;38907;45.562;8.856;2023-06-24T18:07:03;8.10;;;3.13;;
51020;SDS011;38907;45.562;8.856;2023-06-24T18:12:05;8.73;;;3.15;;
51020;SDS011;38907;45.562;8.856;2023-06-24T18:17:09;5.55;;;3.20;;
51020;SDS011;38907;45.562;8.856;2023-06-24T18:22:10;11.32;;;3.55;;
51020;SDS011;38907;45.562;8.856;2023-06-24T18:27:12;12.50;;;3.35;;
51020;SDS011;38907;45.562;8.856;2023-06-24T18:32:16;13.45;;;3.20;;
51020;SDS011;38907;45.562;8.856;2023-06-24T18:37:18;9.52;;;3.70;;
51020;SDS011;38907;45.562;8.856;2023-06-24T18:42:21;4.88;;;3.58;;
51020;SDS011;38907;45.562;8.856;2023-06-24T18:47:25;8.35;;;3.55;;
51020;SDS011;38907;45.562;8.856;2023-06-24T18:52:26;12.07;;;5.05;;
51020;SDS011;38907;45.562;8.856;2023-06-24T18:57:28;17.75;;;3.80;;
51020;SDS011;38907;45.562;8.856;2023-06-24T19:02:31;7.90;;;3.70;;
51020;SDS011;38907;45.562;8.856;2023-06-24T19:07:33;6.25;;;3.40;;
51020;SDS011;38907;45.562;8.856;2023-06-24T19:12:35;8.30;;;3.40;;
51020;SDS011;38907;45.562;8.856;2023-06-24T19:17:38;4.78;;;3.40;;
51020;SDS011;38907;45.562;8.856;2023-06-24T19:22:40;6.18;;;3.33;;
51020;SDS011;38907;45.562;8.856;2023-06-24T19:27:42;12.70;;;3.97;;
51020;SDS011;38907;45.562;8.856;2023-06-24T19:37:47;19.17;;;4.10;;
51020;SDS011;38907;45.562;8.856;2023-06-24T19:47:52;11.38;;;4.70;;
51020;SDS011;38907;45.562;8.856;2023-06-24T19:52:54;12.30;;;5.30;;
51020;SDS011;38907;45.562;8.856;2023-06-24T20:02:59;7.50;;;3.97;;
51020;SDS011;38907;45.562;8.856;2023-06-24T20:08:02;15.98;;;4.70;;
51020;SDS011;38907;45.562;8.856;2023-06-24T20:13:05;5.57;;;4.43;;
51020;SDS011;38907;45.562;8.856;2023-06-24T20:28:12;12.13;;;6.82;;
51020;SDS011;38907;45.562;8.856;2023-06-24T20:43:18;9.00;;;4.25;;
51020;SDS011;38907;45.562;8.856;2023-06-24T20:48:23;7.60;;;4.57;;
51020;SDS011;38907;45.562;8.856;2023-06-24T20:53:25;8.93;;;4.28;;
51020;SDS011;38907;45.562;8.856;2023-06-24T20:58:27;9.18;;;4.70;;
51020;SDS011;38907;45.562;8.856;2023-06-24T21:03:30;11.48;;;4.28;;
51020;SDS011;38907;45.562;8.856;2023-06-24T21:08:32;6.63;;;4.95;;
51020;SDS011;38907;45.562;8.856;2023-06-24T21:18:37;7.15;;;4.90;;
51020;SDS011;38907;45.562;8.856;2023-06-24T21:23:39;15.38;;;4.97;;
51020;SDS011;38907;45.562;8.856;2023-06-24T21:28:41;9.18;;;5.57;;
51020;SDS011;38907;45.562;8.856;2023-06-24T21:33:44;6.38;;;5.03;;
51020;SDS011;38907;45.562;8.856;2023-06-24T21:38:46;13.20;;;5.70;;
51020;SDS011;38907;45.562;8.856;2023-06-24T21:43:48;10.07;;;5.20;;
51020;SDS011;38907;45.562;8.856;2023-06-24T21:48:51;15.68;;;5.63;;
51020;SDS011;38907;45.562;8.856;2023-06-24T21:53:54;9.32;;;5.57;;
51020;SDS011;38907;45.562;8.856;2023-06-24T21:58:56;7.65;;;5.43;;
51020;SDS011;38907;45.562;8.856;2023-06-24T22:03:59;10.23;;;5.68;;
51020;SDS011;38907;45.562;8.856;2023-06-24T22:09:01;8.48;;;5.15;;
51020;SDS011;38907;45.562;8.856;2023-06-24T22:14:03;10.15;;;5.78;;
51020;SDS011;38907;45.562;8.856;2023-06-24T22:19:06;8.98;;;5.70;;
51020;SDS011;38907;45.562;8.856;2023-06-24T22:24:08;8.73;;;5.72;;
51020;SDS011;38907;45.562;8.856;2023-06-24T22:29:10;9.98;;;5.72;;
51020;SDS011;38907;45.562;8.856;2023-06-24T22:34:13;8.82;;;5.45;;
51020;SDS011;38907;45.562;8.856;2023-06-24T22:39:15;8.55;;;5.35;;
51020;SDS011;38907;45.562;8.856;2023-06-24T22:44:18;7.78;;;5.65;;
51020;SDS011;38907;45.562;8.856;2023-06-24T22:49:22;7.70;;;5.38;;
51020;SDS011;38907;45.562;8.856;2023-06-24T22:54:24;15.63;;;6.53;;
51020;SDS011;38907;45.562;8.856;2023-06-24T22:59:26;9.88;;;5.95;;
51020;SDS011;38907;45.562;8.856;2023-06-24T23:04:30;8.90;;;4.97;;
51020;SDS011;38907;45.562;8.856;2023-06-24T23:09:32;13.20;;;4.95;;
51020;SDS011;38907;45.562;8.856;2023-06-24T23:14:34;7.95;;;4.80;;
51020;SDS011;38907;45.562;8.856;2023-06-24T23:24:40;6.30;;;4.80;;
51020;SDS011;38907;45.562;8.856;2023-06-24T23:29:45;7.70;;;4.07;;
51020;SDS011;38907;45.562;8.856;2023-06-24T23:34:52;9.27;;;3.97;;
51020;SDS011;38907;45.562;8.856;2023-06-24T23:39:54;11.02;;;4.00;;
51020;SDS011;38907;45.562;8.856;2023-06-24T23:49:59;8.95;;;3.30;;
51020;SDS011;38907;45.562;8.856;2023-06-24T23:55:01;14.25;;;3.80;;
